KFEW/FEW METAR and TAF weather

Enter ICAO airport designator
Station Type Date Time Source
KFEW METAR 2021/09/27 06:58 UTC NOAA

KFEW 270658Z AUTO 32005KT 10SM BKN140 10/M06 A3013 RMK AO2 SLP132 T01021064 402900051 $


Station Type Date Time Source
KFEW Decoded METAR 2021/09/27 06:58 UTC NOAA

Station name not available
Sep 27, 2021 - 02:58 AM EDT / 2021.09.27 0658 UTC
Wind: from the NW (320 degrees) at 6 MPH (5 KT):0
Visibility: 10 mile(s):0
Sky conditions: mostly cloudy
Temperature: 50.4 F (10.2 C)
Dew Point: 20.5 F (-6.4 C)
Relative Humidity: 30%
Pressure (altimeter): 30.13 in. Hg (1020 hPa)
ob: KFEW 270658Z AUTO 32005KT 10SM BKN140 10/M06 A3013 RMK AO2 SLP132 T01021064 402900051
cycle: 7

Station Type Date Time Source
KFEW TAF UTC NOAA

Error!

Example: see airport list